Time;durP1;ratioP1;P1;durP2;ratioP2;P2;SDS_P1;SDS_P2;PMS_P1;PMS_P2;Temp;Humidity;BMP_temperature;BMP_pressure;BME280_temperature;BME280_humidity;BME280_pressure;Samples;Min_cycle;Max_cycle;Signal;HPM_P1;HPM_P2
2022/05/22 00:02:17;;;;;;;22.85;3.63;;;;;;;;;;10335184;28;20041;-49
2022/05/22 00:07:18;;;;;;;11.43;3.53;;;;;;;;;;10363348;28;20040;-48
2022/05/22 00:12:19;;;;;;;14.02;3.47;;;;;;;;;;10397411;28;20038;-47
2022/05/22 00:17:19;;;;;;;16.85;3.97;;;;;;;;;;10364818;28;20030;-48
2022/05/22 00:22:20;;;;;;;6.80;3.50;;;;;;;;;;10373192;28;20025;-47
2022/05/22 00:27:22;;;;;;;10.52;3.83;;;;;;;;;;10395845;28;20504;-46
2022/05/22 00:32:23;;;;;;;12.65;3.10;;;;;;;;;;10414132;28;20057;-47
2022/05/22 00:37:24;;;;;;;9.20;3.30;;;;;;;;;;10372778;28;20203;-47
2022/05/22 00:42:26;;;;;;;10.10;3.20;;;;;;;;;;10372837;28;20026;-47
2022/05/22 00:47:27;;;;;;;8.48;3.55;;;;;;;;;;10371762;28;20042;-46
2022/05/22 00:52:42;;;;;;;13.48;3.90;;;;;;;;;;10372172;28;20049;-45
2022/05/22 00:57:53;;;;;;;6.15;2.97;;;;;;;;;;10361102;28;20058;-50
2022/05/22 01:08:22;;;;;;;8.05;2.97;;;;;;;;;;10356947;28;20426;-46
2022/05/22 01:13:46;;;;;;;18.60;3.83;;;;;;;;;;10371504;28;20498;-47
2022/05/22 01:18:53;;;;;;;10.63;3.58;;;;;;;;;;10371074;28;20025;-47
2022/05/22 01:23:55;;;;;;;10.45;3.47;;;;;;;;;;10370908;28;20497;-47
2022/05/22 01:28:56;;;;;;;6.60;3.15;;;;;;;;;;10390283;28;20026;-46
2022/05/22 01:33:56;;;;;;;11.38;3.50;;;;;;;;;;10370945;28;20505;-46
2022/05/22 01:38:57;;;;;;;8.85;2.95;;;;;;;;;;10369798;28;20057;-47
2022/05/22 01:43:57;;;;;;;10.52;3.10;;;;;;;;;;10389814;28;20041;-47
2022/05/22 01:48:58;;;;;;;11.73;2.70;;;;;;;;;;10399125;28;20030;-48
2022/05/22 01:54:01;;;;;;;3.85;2.70;;;;;;;;;;10370104;28;20033;-46
2022/05/22 01:59:03;;;;;;;9.65;2.72;;;;;;;;;;10369361;28;20623;-47
2022/05/22 02:04:05;;;;;;;13.52;2.85;;;;;;;;;;10389506;28;20030;-46
2022/05/22 02:09:06;;;;;;;5.45;2.50;;;;;;;;;;10369031;28;20041;-46
2022/05/22 02:14:07;;;;;;;8.05;3.10;;;;;;;;;;10362085;28;20482;-46
2022/05/22 02:19:07;;;;;;;11.65;2.50;;;;;;;;;;10379629;28;20103;-46
2022/05/22 02:24:08;;;;;;;8.48;2.58;;;;;;;;;;10368179;28;20045;-48
2022/05/22 02:29:08;;;;;;;8.20;2.58;;;;;;;;;;10368549;28;20104;-46
2022/05/22 02:34:09;;;;;;;10.57;3.03;;;;;;;;;;10369638;28;20026;-46
2022/05/22 02:39:09;;;;;;;7.20;2.42;;;;;;;;;;10367709;28;20034;-48
2022/05/22 02:44:10;;;;;;;6.85;2.67;;;;;;;;;;10367963;28;20100;-46
2022/05/22 02:49:11;;;;;;;13.77;2.47;;;;;;;;;;10367673;28;20115;-47
2022/05/22 02:54:12;;;;;;;4.72;2.40;;;;;;;;;;10367087;28;20626;-47
2022/05/22 02:59:12;;;;;;;10.68;3.00;;;;;;;;;;10368204;28;20057;-47
2022/05/22 03:04:13;;;;;;;7.68;2.55;;;;;;;;;;10371275;28;20154;-48
2022/05/22 03:09:16;;;;;;;10.55;2.70;;;;;;;;;;10367879;28;20394;-46
2022/05/22 03:14:17;;;;;;;4.15;2.25;;;;;;;;;;10367782;28;20121;-47
2022/05/22 03:19:18;;;;;;;10.82;2.33;;;;;;;;;;10374598;28;20433;-49
2022/05/22 03:24:19;;;;;;;2.88;2.20;;;;;;;;;;10367088;28;20026;-46
2022/05/22 03:29:20;;;;;;;6.38;2.42;;;;;;;;;;10346093;28;20588;-47
2022/05/22 03:34:21;;;;;;;8.93;2.33;;;;;;;;;;10366865;28;20033;-46
2022/05/22 03:39:21;;;;;;;2.97;1.98;;;;;;;;;;10360071;28;20030;-47
2022/05/22 03:44:22;;;;;;;9.38;2.40;;;;;;;;;;10367293;28;20088;-47
2022/05/22 03:49:23;;;;;;;8.82;2.08;;;;;;;;;;10367706;28;20493;-47
2022/05/22 03:54:23;;;;;;;7.00;2.17;;;;;;;;;;10366436;28;20073;-48
2022/05/22 03:59:25;;;;;;;3.60;2.17;;;;;;;;;;10392073;28;20034;-46
2022/05/22 04:04:26;;;;;;;4.72;2.42;;;;;;;;;;10376578;28;20029;-48
2022/05/22 04:09:28;;;;;;;9.18;2.10;;;;;;;;;;10386862;28;20021;-45
2022/05/22 04:14:29;;;;;;;3.42;1.98;;;;;;;;;;10373700;28;20030;-45
2022/05/22 04:19:31;;;;;;;4.80;2.42;;;;;;;;;;10414052;28;20029;-46
2022/05/22 04:29:51;;;;;;;2.53;1.98;;;;;;;;;;10370493;28;20498;-46
2022/05/22 04:34:51;;;;;;;5.35;2.20;;;;;;;;;;10372602;28;20038;-45
2022/05/22 04:39:52;;;;;;;3.78;1.70;;;;;;;;;;10373661;28;20083;-46
2022/05/22 04:44:53;;;;;;;4.25;2.00;;;;;;;;;;10372122;28;20589;-45
2022/05/22 04:49:54;;;;;;;5.32;2.20;;;;;;;;;;10378043;28;20423;-46
2022/05/22 04:54:54;;;;;;;3.97;2.22;;;;;;;;;;10371555;28;20081;-45
2022/05/22 04:59:55;;;;;;;15.07;2.20;;;;;;;;;;10399322;28;20029;-45
2022/05/22 05:04:57;;;;;;;8.88;1.83;;;;;;;;;;10381636;28;20046;-45
2022/05/22 05:09:58;;;;;;;7.93;1.90;;;;;;;;;;10373553;28;20092;-46
2022/05/22 05:14:58;;;;;;;4.25;1.70;;;;;;;;;;10371531;28;20029;-47
2022/05/22 05:19:59;;;;;;;3.53;2.00;;;;;;;;;;10362979;28;20022;-47
2022/05/22 05:25:00;;;;;;;5.72;2.03;;;;;;;;;;10368302;28;20037;-48
2022/05/22 05:30:01;;;;;;;4.78;1.70;;;;;;;;;;10367154;28;20022;-46
2022/05/22 05:35:07;;;;;;;6.05;1.60;;;;;;;;;;10365579;28;20104;-45
2022/05/22 05:40:09;;;;;;;7.78;1.95;;;;;;;;;;10367299;28;20066;-46
2022/05/22 05:45:12;;;;;;;2.92;1.45;;;;;;;;;;10364387;28;20088;-46
2022/05/22 05:50:16;;;;;;;9.80;2.50;;;;;;;;;;10364766;28;20052;-47
2022/05/22 05:55:18;;;;;;;14.35;3.20;;;;;;;;;;10340192;28;20030;-47
2022/05/22 06:00:23;;;;;;;15.57;7.22;;;;;;;;;;10365603;28;20044;-47
2022/05/22 06:05:23;;;;;;;15.82;6.22;;;;;;;;;;10370636;28;20045;-47
2022/05/22 06:10:24;;;;;;;10.52;7.13;;;;;;;;;;10382555;28;20080;-46
2022/05/22 06:15:25;;;;;;;16.73;6.68;;;;;;;;;;10368692;28;20118;-46
2022/05/22 06:20:26;;;;;;;16.30;6.28;;;;;;;;;;10366602;28;20030;-46
2022/05/22 06:25:26;;;;;;;18.15;6.38;;;;;;;;;;10367603;28;20049;-46
2022/05/22 06:30:27;;;;;;;12.38;6.57;;;;;;;;;;10361108;28;20030;-46
2022/05/22 06:35:28;;;;;;;8.55;6.22;;;;;;;;;;10368307;28;20562;-45
2022/05/22 06:40:28;;;;;;;14.18;7.75;;;;;;;;;;10369950;28;20038;-45
2022/05/22 06:45:29;;;;;;;8.82;7.00;;;;;;;;;;10369307;28;20034;-44
2022/05/22 06:50:30;;;;;;;9.80;6.32;;;;;;;;;;10367541;28;20054;-46
2022/05/22 06:55:30;;;;;;;9.18;5.97;;;;;;;;;;10367707;28;20030;-45
2022/05/22 07:00:31;;;;;;;13.30;5.80;;;;;;;;;;10367718;28;20034;-45
2022/05/22 07:05:32;;;;;;;13.23;6.43;;;;;;;;;;10367383;28;20040;-45
2022/05/22 07:16:10;;;;;;;8.25;4.57;;;;;;;;;;10363142;28;20026;-45
2022/05/22 07:21:11;;;;;;;11.13;4.88;;;;;;;;;;10363755;28;20544;-45
2022/05/22 07:26:12;;;;;;;14.45;4.45;;;;;;;;;;10369482;28;20037;-44
2022/05/22 07:31:19;;;;;;;12.13;4.15;;;;;;;;;;10395548;28;20128;-44
2022/05/22 07:36:21;;;;;;;;;;;;;;;;;;10374782;28;20050;-44
2022/05/22 07:41:22;;;;;;;4.00;3.17;;;;;;;;;;10374716;28;20353;-43
2022/05/22 07:46:22;;;;;;;5.68;3.58;;;;;;;;;;10378442;28;20032;-44
2022/05/22 07:51:23;;;;;;;6.22;3.80;;;;;;;;;;10408398;28;20505;-44
2022/05/22 07:56:24;;;;;;;8.27;3.95;;;;;;;;;;10374432;28;20160;-44
2022/05/22 08:01:24;;;;;;;5.20;3.28;;;;;;;;;;10373863;28;20026;-45
2022/05/22 08:06:25;;;;;;;10.18;4.28;;;;;;;;;;10375701;28;20030;-48
2022/05/22 08:11:25;;;;;;;6.22;3.78;;;;;;;;;;10372885;28;20133;-46
2022/05/22 08:16:26;;;;;;;12.07;3.78;;;;;;;;;;10374722;28;20109;-46
2022/05/22 08:21:27;;;;;;;7.25;3.60;;;;;;;;;;10350439;28;20486;-49
2022/05/22 08:26:28;;;;;;;7.43;3.78;;;;;;;;;;10335706;28;20089;-46
2022/05/22 08:31:28;;;;;;;6.38;3.50;;;;;;;;;;10330762;28;20018;-46
2022/05/22 08:36:29;;;;;;;9.55;3.55;;;;;;;;;;10342073;28;20105;-45
2022/05/22 08:41:37;;;;;;;5.45;3.90;;;;;;;;;;10340565;28;20069;-47
2022/05/22 08:47:25;;;;;;;8.27;3.85;;;;;;;;;;10352368;28;20048;-46
2022/05/22 08:53:08;;;;;;;5.65;3.30;;;;;;;;;;10355473;28;20133;-46
2022/05/22 09:03:42;;;;;;;6.68;3.72;;;;;;;;;;10372190;28;20105;-45
2022/05/22 09:08:47;;;;;;;7.45;3.50;;;;;;;;;;10335165;28;20066;-46
2022/05/22 09:14:30;;;;;;;6.38;3.45;;;;;;;;;;10314010;28;20026;-46
2022/05/22 09:19:49;;;;;;;7.13;3.00;;;;;;;;;;10283500;28;20026;-45
2022/05/22 09:25:01;;;;;;;6.30;3.40;;;;;;;;;;10283430;28;20043;-45
2022/05/22 09:30:50;;;;;;;4.90;3.42;;;;;;;;;;10284162;28;20275;-46
2022/05/22 09:36:37;;;;;;;5.65;3.28;;;;;;;;;;10266188;28;20050;-46
2022/05/22 09:42:08;;;;;;;6.28;3.40;;;;;;;;;;10201706;28;20637;-45
2022/05/22 09:47:33;;;;;;;6.15;3.30;;;;;;;;;;10300250;28;20203;-46
2022/05/22 09:53:01;;;;;;;10.60;3.65;;;;;;;;;;10398123;28;20033;-46
2022/05/22 09:58:22;;;;;;;3.80;3.05;;;;;;;;;;10354272;28;20018;-46
2022/05/22 10:03:49;;;;;;;7.60;3.50;;;;;;;;;;10352700;28;20061;-45
2022/05/22 10:09:11;;;;;;;5.20;3.67;;;;;;;;;;10396531;28;20040;-46
2022/05/22 10:14:47;;;;;;;5.45;3.47;;;;;;;;;;10391259;28;20034;-46
2022/05/22 10:20:18;;;;;;;5.80;3.78;;;;;;;;;;10306705;28;20046;-45
2022/05/22 10:25:59;;;;;;;7.28;3.33;;;;;;;;;;10356369;28;20076;-45
2022/05/22 10:31:09;;;;;;;7.07;3.50;;;;;;;;;;10391645;28;20492;-45
2022/05/22 10:36:15;;;;;;;10.88;3.72;;;;;;;;;;10385629;28;20058;-46
2022/05/22 10:46:53;;;;;;;6.63;3.47;;;;;;;;;;10355043;28;20034;-46
2022/05/22 10:52:00;;;;;;;5.07;3.72;;;;;;;;;;10375862;28;20037;-45
2022/05/22 10:57:21;;;;;;;7.93;3.80;;;;;;;;;;10367858;28;20125;-46
2022/05/22 11:02:28;;;;;;;4.50;3.60;;;;;;;;;;10339963;28;20105;-46
2022/05/22 11:07:46;;;;;;;5.40;3.90;;;;;;;;;;10329268;28;20116;-45
2022/05/22 11:13:03;;;;;;;6.00;4.00;;;;;;;;;;10338553;28;20117;-46
2022/05/22 11:18:18;;;;;;;5.75;4.28;;;;;;;;;;10335696;28;20042;-45
2022/05/22 11:23:49;;;;;;;7.85;4.30;;;;;;;;;;10369216;28;20038;-46
2022/05/22 11:29:13;;;;;;;4.72;3.65;;;;;;;;;;10375553;28;20041;-47
2022/05/22 11:34:35;;;;;;;4.72;3.70;;;;;;;;;;10342297;28;20482;-45
2022/05/22 11:39:57;;;;;;;8.13;4.60;;;;;;;;;;10374612;28;20061;-46
2022/05/22 11:45:36;;;;;;;5.35;4.05;;;;;;;;;;10399003;28;20363;-46
2022/05/22 11:51:16;;;;;;;4.05;3.70;;;;;;;;;;10378241;28;20038;-47
2022/05/22 11:56:37;;;;;;;5.40;4.05;;;;;;;;;;10336558;28;20022;-46
2022/05/22 12:02:16;;;;;;;4.70;3.83;;;;;;;;;;10332995;28;20113;-45
2022/05/22 12:08:18;;;;;;;5.45;3.75;;;;;;;;;;10392861;28;20095;-45
2022/05/22 12:13:53;;;;;;;6.50;4.13;;;;;;;;;;10287884;28;20494;-47
2022/05/22 12:19:05;;;;;;;8.45;4.18;;;;;;;;;;10368513;28;20497;-44
2022/05/22 12:24:53;;;;;;;13.27;4.20;;;;;;;;;;10331593;28;20501;-45
2022/05/22 12:30:40;;;;;;;4.50;3.75;;;;;;;;;;10353440;28;20061;-46
2022/05/22 12:35:42;;;;;;;6.97;4.37;;;;;;;;;;10319191;28;20129;-44
2022/05/22 12:40:52;;;;;;;7.07;4.10;;;;;;;;;;10371214;28;20524;-45
2022/05/22 12:45:58;;;;;;;5.55;4.22;;;;;;;;;;10356393;28;20073;-45
2022/05/22 12:51:14;;;;;;;10.85;4.22;;;;;;;;;;10345561;28;20433;-45
2022/05/22 12:56:31;;;;;;;6.90;4.53;;;;;;;;;;10357517;28;20029;-45
2022/05/22 13:01:31;;;;;;;15.05;4.20;;;;;;;;;;10372294;28;20088;-45
2022/05/22 13:06:48;;;;;;;4.93;3.73;;;;;;;;;;10367928;28;20033;-45
2022/05/22 13:11:57;;;;;;;4.53;3.83;;;;;;;;;;10410316;28;20784;-45
2022/05/22 13:16:59;;;;;;;6.22;4.03;;;;;;;;;;10377708;28;20105;-46
2022/05/22 13:22:12;;;;;;;4.50;3.45;;;;;;;;;;10345032;28;20030;-47
2022/05/22 13:27:29;;;;;;;10.05;4.03;;;;;;;;;;10370583;28;20030;-45
2022/05/22 13:32:51;;;;;;;10.18;3.90;;;;;;;;;;10368189;28;20026;-45
2022/05/22 13:37:54;;;;;;;8.68;3.90;;;;;;;;;;10345948;28;20046;-45
2022/05/22 13:43:09;;;;;;;9.73;4.45;;;;;;;;;;10346859;28;20101;-45
2022/05/22 13:48:38;;;;;;;6.03;3.58;;;;;;;;;;10369758;28;20556;-44
2022/05/22 13:53:51;;;;;;;4.65;3.58;;;;;;;;;;10371403;28;20445;-45
2022/05/22 13:58:51;;;;;;;10.80;4.03;;;;;;;;;;10369578;28;20389;-45
2022/05/22 14:04:02;;;;;;;7.47;4.30;;;;;;;;;;10343291;28;20022;-44
2022/05/22 14:09:05;;;;;;;9.73;4.10;;;;;;;;;;10330416;28;20490;-45
2022/05/22 14:14:26;;;;;;;7.25;4.55;;;;;;;;;;10329842;28;20505;-45
2022/05/22 14:19:38;;;;;;;11.63;4.60;;;;;;;;;;10332291;28;20042;-45
2022/05/22 14:24:51;;;;;;;6.15;4.15;;;;;;;;;;10354604;28;20045;-47
2022/05/22 14:29:52;;;;;;;9.75;4.20;;;;;;;;;;10368716;28;20030;-46
2022/05/22 14:34:52;;;;;;;7.13;4.20;;;;;;;;;;10363697;28;20038;-45
2022/05/22 14:39:54;;;;;;;9.52;4.25;;;;;;;;;;10364752;28;20026;-45
2022/05/22 14:44:55;;;;;;;6.03;4.10;;;;;;;;;;10328707;28;20104;-46
2022/05/22 14:49:57;;;;;;;7.93;4.20;;;;;;;;;;10372352;28;20060;-47
2022/05/22 14:55:13;;;;;;;11.55;4.40;;;;;;;;;;10409043;28;20087;-45
2022/05/22 15:00:24;;;;;;;11.48;5.05;;;;;;;;;;10369134;28;20359;-45
2022/05/22 15:05:37;;;;;;;10.75;4.45;;;;;;;;;;10344570;28;20381;-46
2022/05/22 15:10:42;;;;;;;5.88;4.60;;;;;;;;;;10345062;28;20126;-45
2022/05/22 15:15:42;;;;;;;8.23;4.43;;;;;;;;;;10330901;28;20045;-45
2022/05/22 15:20:43;;;;;;;6.82;4.40;;;;;;;;;;10357890;28;20022;-45
2022/05/22 15:25:48;;;;;;;9.95;5.07;;;;;;;;;;10357902;28;20037;-46
2022/05/22 15:30:58;;;;;;;7.80;4.78;;;;;;;;;;10352685;28;20040;-45
2022/05/22 15:36:05;;;;;;;6.97;4.63;;;;;;;;;;10359174;28;20429;-45
2022/05/22 15:42:08;;;;;;;9.70;4.73;;;;;;;;;;10360816;28;20405;-45
2022/05/22 15:47:23;;;;;;;12.05;5.38;;;;;;;;;;10349329;28;20030;-46
2022/05/22 15:52:26;;;;;;;11.90;4.78;;;;;;;;;;10337770;28;20041;-44
2022/05/22 15:57:27;;;;;;;9.52;5.50;;;;;;;;;;10342790;28;20771;-45
2022/05/22 16:02:36;;;;;;;8.90;5.00;;;;;;;;;;10360852;28;20040;-46
2022/05/22 16:07:37;;;;;;;9.75;4.93;;;;;;;;;;10330190;28;20030;-47
2022/05/22 16:12:37;;;;;;;6.88;4.93;;;;;;;;;;10384092;28;20026;-46
2022/05/22 16:17:50;;;;;;;10.88;5.70;;;;;;;;;;10377736;28;20095;-48
2022/05/22 16:22:51;;;;;;;13.27;5.45;;;;;;;;;;10362469;28;20030;-46
2022/05/22 16:27:52;;;;;;;6.78;5.30;;;;;;;;;;10376880;28;20389;-47
2022/05/22 16:32:53;;;;;;;13.60;5.53;;;;;;;;;;10368958;28;20034;-46
2022/05/22 16:37:54;;;;;;;14.05;5.97;;;;;;;;;;10364888;28;20054;-46
2022/05/22 16:42:55;;;;;;;8.90;4.80;;;;;;;;;;10368426;28;20029;-47
2022/05/22 16:53:20;;;;;;;10.57;5.00;;;;;;;;;;10369526;28;20065;-46
2022/05/22 16:58:26;;;;;;;8.85;5.18;;;;;;;;;;10361232;28;20061;-46
2022/05/22 17:03:32;;;;;;;13.05;6.38;;;;;;;;;;10372542;28;20032;-45
2022/05/22 17:08:53;;;;;;;5.25;4.60;;;;;;;;;;10370381;28;20041;-47
2022/05/22 17:14:20;;;;;;;7.57;5.10;;;;;;;;;;10356500;28;20038;-46
2022/05/22 17:19:23;;;;;;;7.68;4.85;;;;;;;;;;10355489;28;20507;-46
2022/05/22 17:24:30;;;;;;;9.00;4.93;;;;;;;;;;10370243;28;20030;-46
2022/05/22 17:29:31;;;;;;;12.70;5.20;;;;;;;;;;10353802;28;20030;-46
2022/05/22 17:34:32;;;;;;;10.60;6.32;;;;;;;;;;10370415;28;20042;-46
2022/05/22 17:39:38;;;;;;;18.50;5.78;;;;;;;;;;10364588;28;20033;-46
2022/05/22 17:44:39;;;;;;;10.60;5.00;;;;;;;;;;10353797;28;20087;-47
2022/05/22 17:49:41;;;;;;;8.00;4.90;;;;;;;;;;10373720;28;20022;-46
2022/05/22 17:54:48;;;;;;;13.98;6.00;;;;;;;;;;10387104;28;20025;-46
2022/05/22 17:59:48;;;;;;;14.90;6.40;;;;;;;;;;10353911;28;20513;-47
2022/05/22 18:04:49;;;;;;;11.48;5.25;;;;;;;;;;10368602;28;20125;-46
2022/05/22 18:09:53;;;;;;;7.65;5.35;;;;;;;;;;10368143;28;20029;-50
2022/05/22 18:20:13;;;;;;;14.60;6.25;;;;;;;;;;10385846;28;20029;-45
2022/05/22 18:25:28;;;;;;;9.32;4.95;;;;;;;;;;10370080;28;20065;-45
2022/05/22 18:30:29;;;;;;;14.90;6.03;;;;;;;;;;10370068;28;20117;-48
2022/05/22 18:35:30;;;;;;;12.25;5.32;;;;;;;;;;10370088;28;20041;-46
2022/05/22 18:40:33;;;;;;;12.40;4.97;;;;;;;;;;10368624;28;20033;-46
2022/05/22 18:45:43;;;;;;;8.23;4.55;;;;;;;;;;10352984;28;20472;-46
2022/05/22 18:50:43;;;;;;;8.07;5.35;;;;;;;;;;10360186;28;20053;-45
2022/05/22 18:55:46;;;;;;;9.50;4.63;;;;;;;;;;10367714;28;20588;-46
2022/05/22 19:00:48;;;;;;;7.82;4.32;;;;;;;;;;10367325;28;20047;-46
2022/05/22 19:05:49;;;;;;;5.72;4.25;;;;;;;;;;10367898;28;20038;-46
2022/05/22 19:10:54;;;;;;;9.60;4.68;;;;;;;;;;10373584;28;20030;-46
2022/05/22 19:15:55;;;;;;;21.73;6.00;;;;;;;;;;10352879;28;20113;-44
2022/05/22 19:20:56;;;;;;;12.73;4.97;;;;;;;;;;10368353;28;20026;-45
2022/05/22 19:25:59;;;;;;;17.60;4.80;;;;;;;;;;10365768;28;20034;-47
2022/05/22 19:31:01;;;;;;;10.50;5.18;;;;;;;;;;10372765;28;20057;-44
2022/05/22 19:36:04;;;;;;;15.35;4.40;;;;;;;;;;10407032;28;20041;-44
2022/05/22 19:46:32;;;;;;;7.65;4.72;;;;;;;;;;10359801;28;20029;-45
2022/05/22 19:51:34;;;;;;;17.33;4.97;;;;;;;;;;10353081;28;20539;-45
2022/05/22 20:01:53;;;;;;;10.93;5.13;;;;;;;;;;10377014;28;20030;-44
2022/05/22 20:06:54;;;;;;;8.48;4.30;;;;;;;;;;10338621;28;20034;-44
2022/05/22 20:11:55;;;;;;;8.63;4.30;;;;;;;;;;10353383;28;20022;-44
2022/05/22 20:16:56;;;;;;;8.05;4.22;;;;;;;;;;10329364;28;20026;-45
2022/05/22 20:21:56;;;;;;;10.02;4.75;;;;;;;;;;10344049;28;20034;-48
2022/05/22 20:27:05;;;;;;;7.53;4.25;;;;;;;;;;10361119;28;20037;-45
2022/05/22 20:32:06;;;;;;;6.20;4.30;;;;;;;;;;10343053;28;20526;-44
2022/05/22 20:37:07;;;;;;;9.65;4.20;;;;;;;;;;10376866;28;20581;-45
2022/05/22 20:42:08;;;;;;;10.90;4.00;;;;;;;;;;10385442;28;20040;-47
2022/05/22 20:47:11;;;;;;;10.90;5.53;;;;;;;;;;10369165;28;20048;-45
2022/05/22 20:52:12;;;;;;;7.30;5.25;;;;;;;;;;10369173;28;20034;-47
2022/05/22 20:57:13;;;;;;;20.63;6.55;;;;;;;;;;10369988;28;20032;-43
2022/05/22 21:02:18;;;;;;;20.80;8.23;;;;;;;;;;10384730;28;20036;-43
2022/05/22 21:07:25;;;;;;;13.82;7.70;;;;;;;;;;10379740;28;20652;-44
2022/05/22 21:12:25;;;;;;;12.65;6.82;;;;;;;;;;10382430;28;20036;-44
2022/05/22 21:17:26;;;;;;;12.95;6.45;;;;;;;;;;10396777;28;20045;-45
2022/05/22 21:22:27;;;;;;;11.25;5.15;;;;;;;;;;10358495;28;20452;-46
2022/05/22 21:32:47;;;;;;;11.50;5.50;;;;;;;;;;10364626;28;20276;-45
2022/05/22 21:37:47;;;;;;;11.20;5.30;;;;;;;;;;10294335;28;1127381;-46
2022/05/22 21:42:48;;;;;;;7.47;4.55;;;;;;;;;;10366156;28;20061;-45
2022/05/22 21:47:49;;;;;;;13.60;4.60;;;;;;;;;;10367911;28;20073;-44
2022/05/22 21:52:49;;;;;;;12.15;4.88;;;;;;;;;;10370672;28;20034;-45
2022/05/22 21:57:51;;;;;;;7.07;4.70;;;;;;;;;;10368978;28;20190;-44
2022/05/22 22:02:53;;;;;;;8.52;4.78;;;;;;;;;;10372673;28;20034;-47
2022/05/22 22:07:54;;;;;;;8.07;4.80;;;;;;;;;;10369406;28;20056;-44
2022/05/22 22:12:54;;;;;;;12.10;4.43;;;;;;;;;;10370794;28;20040;-46
2022/05/22 22:17:55;;;;;;;7.53;4.18;;;;;;;;;;10384280;28;20044;-44
2022/05/22 22:22:55;;;;;;;6.70;4.00;;;;;;;;;;10370313;28;20026;-43
2022/05/22 22:27:56;;;;;;;5.15;3.75;;;;;;;;;;10368832;28;20109;-44
2022/05/22 22:32:57;;;;;;;7.93;4.38;;;;;;;;;;10369631;28;20110;-44
2022/05/22 22:37:58;;;;;;;7.82;4.07;;;;;;;;;;10374832;28;20041;-44
2022/05/22 22:43:01;;;;;;;9.70;4.15;;;;;;;;;;10409961;28;20080;-44
2022/05/22 22:48:03;;;;;;;6.32;4.00;;;;;;;;;;10378966;28;20030;-45
2022/05/22 22:53:04;;;;;;;5.53;3.80;;;;;;;;;;10368555;28;20045;-47
2022/05/22 22:58:11;;;;;;;10.07;4.32;;;;;;;;;;10369702;28;20022;-45
2022/05/22 23:03:13;;;;;;;6.78;4.15;;;;;;;;;;10384498;28;20026;-44
2022/05/22 23:08:14;;;;;;;4.75;3.58;;;;;;;;;;10394673;28;20096;-45
2022/05/22 23:13:19;;;;;;;14.25;3.67;;;;;;;;;;10369158;28;20034;-44
2022/05/22 23:18:20;;;;;;;4.90;3.95;;;;;;;;;;10367550;28;20088;-45
2022/05/22 23:23:21;;;;;;;7.47;4.00;;;;;;;;;;10370534;28;20033;-45
2022/05/22 23:28:23;;;;;;;4.28;3.40;;;;;;;;;;10398007;28;20088;-45
2022/05/22 23:33:24;;;;;;;4.22;3.55;;;;;;;;;;10367696;28;20034;-44
2022/05/22 23:43:50;;;;;;;4.32;3.22;;;;;;;;;;10367257;28;20030;-44
2022/05/22 23:48:50;;;;;;;6.10;3.88;;;;;;;;;;10384156;28;20033;-44
2022/05/22 23:53:52;;;;;;;3.83;3.13;;;;;;;;;;10392881;28;20084;-44
2022/05/22 23:58:53;;;;;;;9.38;3.25;;;;;;;;;;10367591;28;20159;-44
